createdAt,value
2019-05-01T00:02:03.964Z,84.90
2019-05-01T00:06:16.462Z,86.30
2019-05-01T00:10:27.609Z,87.80
2019-05-01T00:14:39.069Z,88.90
2019-05-01T00:18:49.381Z,89.20
2019-05-01T00:22:59.693Z,89.70
2019-05-01T00:27:10.063Z,90.00
2019-05-01T00:31:21.906Z,90.10
2019-05-01T00:35:32.307Z,90.20
2019-05-01T00:39:42.665Z,90.30
2019-05-01T00:43:53.005Z,90.70
2019-05-01T00:48:03.307Z,90.80
2019-05-01T00:52:13.622Z,90.70
2019-05-01T00:56:31.055Z,90.30
2019-05-01T01:00:48.625Z,90.20
2019-05-01T01:04:59.749Z,90.10
2019-05-01T01:09:10.274Z,90.20
2019-05-01T01:13:20.588Z,90.00
2019-05-01T01:17:30.885Z,90.00
2019-05-01T01:21:41.263Z,90.20
2019-05-01T01:25:51.565Z,90.20
2019-05-01T01:30:01.931Z,90.10
2019-05-01T01:34:12.662Z,90.00
2019-05-01T01:38:22.979Z,90.10
2019-05-01T01:42:33.506Z,90.30
2019-05-01T01:46:48.660Z,90.30
2019-05-01T01:51:00.022Z,90.40
2019-05-01T01:55:10.384Z,90.70
2019-05-01T01:59:21.797Z,90.80
2019-05-01T02:03:33.873Z,91.10
2019-05-01T02:07:44.784Z,91.40
2019-05-01T02:11:55.964Z,91.70
2019-05-01T02:16:06.340Z,91.60
2019-05-01T02:20:16.699Z,91.70
2019-05-01T02:24:26.999Z,91.90
2019-05-01T02:28:44.577Z,91.80
2019-05-01T02:32:56.206Z,91.80
2019-05-01T02:37:09.107Z,91.70
2019-05-01T02:41:20.554Z,91.60
2019-05-01T02:45:31.006Z,91.40
2019-05-01T02:49:47.672Z,91.40
2019-05-01T02:54:00.658Z,91.30
2019-05-01T02:58:11.714Z,91.20
2019-05-01T03:02:24.724Z,91.10
2019-05-01T03:06:35.476Z,91.10
2019-05-01T03:10:45.846Z,91.10
2019-05-01T03:14:59.315Z,91.20
2019-05-01T03:19:24.913Z,91.30
2019-05-01T03:23:37.247Z,91.30
2019-05-01T03:27:48.313Z,91.20
2019-05-01T03:32:16.784Z,91.10
2019-05-01T03:36:12.157Z,90.90
2019-05-01T03:40:22.788Z,90.90
2019-05-01T03:44:34.049Z,91.00
2019-05-01T03:48:44.356Z,91.40
2019-05-01T03:52:54.724Z,91.70
2019-05-01T03:57:05.171Z,91.90
2019-05-01T04:01:23.210Z,92.00
2019-05-01T04:05:33.771Z,92.10
2019-05-01T04:09:44.159Z,92.10
2019-05-01T04:13:54.541Z,92.30
2019-05-01T04:18:07.825Z,92.40
2019-05-01T04:22:18.147Z,92.50
2019-05-01T04:26:28.509Z,92.40
2019-05-01T04:30:55.077Z,92.50
2019-05-01T04:35:19.650Z,92.70
2019-05-01T04:39:30.173Z,92.60
2019-05-01T04:43:40.670Z,92.70
2019-05-01T04:47:51.744Z,92.70
2019-05-01T04:52:02.718Z,92.70
2019-05-01T04:56:13.197Z,92.70
2019-05-01T05:00:23.637Z,92.70
2019-05-01T05:04:34.168Z,92.70
2019-05-01T05:08:44.638Z,92.70
2019-05-01T05:12:56.929Z,92.70
2019-05-01T05:17:18.003Z,92.70
2019-05-01T05:21:28.636Z,92.80
2019-05-01T05:25:39.011Z,92.80
2019-05-01T05:29:49.872Z,92.80
2019-05-01T05:34:01.220Z,92.60
2019-05-01T05:38:30.641Z,92.30
2019-05-01T05:42:42.956Z,92.20
2019-05-01T05:46:54.055Z,92.10
2019-05-01T05:51:29.434Z,92.10
2019-05-01T05:55:42.728Z,91.90
2019-05-01T06:00:06.893Z,91.90
2019-05-01T06:04:38.473Z,91.40
2019-05-01T06:08:51.749Z,90.90
2019-05-01T06:13:21.943Z,90.70
2019-05-01T06:17:32.573Z,90.10
2019-05-01T06:22:04.846Z,88.70
2019-05-01T06:26:32.223Z,87.70
2019-05-01T06:30:41.998Z,83.50
2019-05-01T06:34:51.635Z,80.80
2019-05-01T06:39:06.749Z,79.70
2019-05-01T06:43:36.629Z,78.10
2019-05-01T06:47:48.585Z,77.50
2019-05-01T06:52:01.970Z,76.30
2019-05-01T06:56:13.088Z,76.70
2019-05-01T07:00:23.461Z,77.40
2019-05-01T07:04:37.813Z,76.60
2019-05-01T07:08:46.204Z,76.00
2019-05-01T07:12:59.844Z,74.40
2019-05-01T07:17:13.585Z,74.20
2019-05-01T07:21:27.049Z,72.20
2019-05-01T07:25:39.406Z,70.10
2019-05-01T07:29:48.760Z,69.80
2019-05-01T07:33:59.141Z,70.60
2019-05-01T07:38:09.635Z,71.70
2019-05-01T07:42:28.196Z,71.70
2019-05-01T07:46:40.049Z,70.50
2019-05-01T07:50:50.604Z,68.10
2019-05-01T07:55:01.033Z,67.40
2019-05-01T07:59:12.211Z,67.40
2019-05-01T08:03:22.513Z,68.40
2019-05-01T08:07:33.641Z,69.00
2019-05-01T08:11:45.493Z,68.40
2019-05-01T08:15:55.859Z,69.10
2019-05-01T08:20:16.946Z,69.10
2019-05-01T08:24:27.327Z,69.20
2019-05-01T08:28:42.735Z,69.80
2019-05-01T08:33:03.752Z,70.00
2019-05-01T08:37:17.869Z,69.10
2019-05-01T08:41:26.939Z,68.40
2019-05-01T08:45:51.772Z,67.70
2019-05-01T08:50:06.269Z,70.20
2019-05-01T08:54:16.692Z,72.50
2019-05-01T08:58:27.078Z,73.20
2019-05-01T09:02:41.753Z,73.10
2019-05-01T09:06:49.233Z,72.40
2019-05-01T09:11:00.488Z,71.60
2019-05-01T09:15:12.799Z,70.00
2019-05-01T09:19:26.774Z,66.20
2019-05-01T09:23:37.149Z,67.10
2019-05-01T09:28:04.117Z,67.40
2019-05-01T09:32:12.473Z,65.20
2019-05-01T09:36:22.678Z,64.10
2019-05-01T09:40:33.280Z,65.20
2019-05-01T09:44:43.647Z,64.80
2019-05-01T09:48:54.514Z,63.10
2019-05-01T09:53:09.164Z,61.60
2019-05-01T09:57:19.473Z,58.50
2019-05-01T10:01:32.824Z,55.70
2019-05-01T10:05:42.880Z,54.90
2019-05-01T10:09:53.981Z,55.90
2019-05-01T10:14:06.735Z,53.70
2019-05-01T10:18:18.577Z,48.80
2019-05-01T10:22:32.891Z,45.00
2019-05-01T10:26:45.504Z,45.80
2019-05-01T10:31:00.925Z,46.20
2019-05-01T10:35:19.294Z,46.40
2019-05-01T10:39:30.128Z,47.50
2019-05-01T10:43:40.296Z,48.80
2019-05-01T10:47:52.807Z,48.60
2019-05-01T10:52:13.674Z,49.00
2019-05-01T10:56:19.170Z,48.90
2019-05-01T11:00:31.982Z,48.90
2019-05-01T11:04:44.959Z,48.60
2019-05-01T11:08:55.273Z,48.70
2019-05-01T11:13:07.742Z,47.80
2019-05-01T11:17:17.869Z,47.30
2019-05-01T11:21:28.287Z,48.00
2019-05-01T11:25:40.230Z,48.20
2019-05-01T11:29:50.548Z,48.40
2019-05-01T11:34:08.533Z,47.90
2019-05-01T11:38:38.791Z,47.60
2019-05-01T11:42:49.205Z,48.60
2019-05-01T11:46:59.878Z,48.70
2019-05-01T11:51:10.266Z,45.70
2019-05-01T11:55:20.669Z,43.50
2019-05-01T11:59:32.969Z,42.20
2019-05-01T12:03:44.472Z,42.80
2019-05-01T12:07:54.772Z,43.80
2019-05-01T12:12:15.503Z,45.30
2019-05-01T12:16:43.825Z,46.20
2019-05-01T12:20:54.131Z,46.20
2019-05-01T12:25:05.344Z,46.70
2019-05-01T12:29:15.869Z,46.90
2019-05-01T12:33:26.187Z,46.60
2019-05-01T12:37:41.498Z,44.00
2019-05-01T12:41:59.520Z,41.80
2019-05-01T12:46:11.804Z,41.00
2019-05-01T12:50:22.732Z,42.90
2019-05-01T12:54:40.171Z,42.90
2019-05-01T12:58:50.837Z,43.10
2019-05-01T13:03:01.179Z,43.90
2019-05-01T13:07:11.988Z,43.40
2019-05-01T13:11:22.427Z,41.80
2019-05-01T13:15:32.830Z,42.90
2019-05-01T13:19:43.132Z,43.90
2019-05-01T13:23:54.234Z,44.00
2019-05-01T13:28:22.704Z,42.30
2019-05-01T13:32:37.865Z,42.60
2019-05-01T13:36:48.064Z,42.20
2019-05-01T13:40:59.041Z,41.70
2019-05-01T13:45:10.691Z,43.70
2019-05-01T13:49:21.093Z,45.60
2019-05-01T13:53:31.422Z,44.80
2019-05-01T13:57:41.715Z,43.80
2019-05-01T14:01:52.140Z,43.10
2019-05-01T14:06:02.475Z,43.50
2019-05-01T14:10:13.236Z,44.00
2019-05-01T14:14:23.604Z,44.40
2019-05-01T14:18:33.904Z,44.50
2019-05-01T14:22:48.421Z,44.00
2019-05-01T14:26:58.740Z,43.60
2019-05-01T14:31:09.519Z,43.60
2019-05-01T14:35:21.167Z,43.70
2019-05-01T14:39:31.465Z,43.00
2019-05-01T14:43:41.803Z,44.00
2019-05-01T14:47:52.111Z,43.70
2019-05-01T14:52:02.579Z,44.20
2019-05-01T14:56:12.894Z,44.70
2019-05-01T15:00:23.423Z,44.10
2019-05-01T15:04:33.769Z,44.70
2019-05-01T15:08:44.090Z,44.00
2019-05-01T15:12:56.043Z,44.40
2019-05-01T15:17:13.737Z,45.10
2019-05-01T15:21:24.056Z,44.20
2019-05-01T15:25:34.360Z,44.60
2019-05-01T15:29:44.770Z,45.20
2019-05-01T15:33:55.171Z,45.40
2019-05-01T15:38:05.581Z,45.20
2019-05-01T15:42:29.613Z,44.90
2019-05-01T15:46:40.592Z,45.00
2019-05-01T15:50:51.114Z,45.10
2019-05-01T15:55:01.430Z,44.90
2019-05-01T15:59:12.460Z,44.20
2019-05-01T16:03:23.674Z,45.00
2019-05-01T16:07:33.941Z,44.50
2019-05-01T16:11:59.980Z,44.60
2019-05-01T16:16:10.352Z,44.60
2019-05-01T16:20:20.755Z,44.30
2019-05-01T16:24:31.131Z,44.50
2019-05-01T16:28:41.561Z,45.00
2019-05-01T16:32:51.878Z,45.80
2019-05-01T16:37:02.189Z,46.40
2019-05-01T16:41:12.817Z,45.60
2019-05-01T16:45:23.278Z,46.20
2019-05-01T16:49:33.577Z,47.10
2019-05-01T16:53:43.893Z,47.50
2019-05-01T16:57:54.467Z,47.70
2019-05-01T17:02:12.717Z,47.80
2019-05-01T17:06:39.672Z,48.20
2019-05-01T17:10:53.484Z,48.70
2019-05-01T17:15:04.006Z,49.20
2019-05-01T17:19:14.384Z,49.90
2019-05-01T17:23:24.602Z,50.20
2019-05-01T17:27:34.905Z,50.60
2019-05-01T17:31:45.534Z,50.80
2019-05-01T17:35:55.849Z,51.40
2019-05-01T17:40:06.511Z,52.10
2019-05-01T17:44:20.230Z,52.40
2019-05-01T17:48:33.709Z,52.40
2019-05-01T17:52:42.904Z,52.60
2019-05-01T17:56:55.724Z,53.10
2019-05-01T18:01:07.883Z,53.70
2019-05-01T18:05:20.016Z,54.50
2019-05-01T18:09:30.306Z,55.10
2019-05-01T18:13:40.661Z,55.40
2019-05-01T18:17:51.458Z,55.90
2019-05-01T18:22:04.978Z,56.20
2019-05-01T18:26:16.935Z,56.70
2019-05-01T18:30:28.925Z,57.20
2019-05-01T18:34:39.500Z,57.80
2019-05-01T18:39:15.574Z,58.30
2019-05-01T18:43:15.461Z,58.80
2019-05-01T18:47:26.208Z,58.90
2019-05-01T18:51:40.730Z,58.90
2019-05-01T18:55:48.696Z,59.00
2019-05-01T18:59:59.209Z,59.50
2019-05-01T19:04:09.760Z,60.00
2019-05-01T19:08:20.248Z,60.60
2019-05-01T19:12:31.345Z,61.90
2019-05-01T19:16:45.177Z,62.50
2019-05-01T19:20:59.845Z,63.30
2019-05-01T19:25:11.019Z,63.90
2019-05-01T19:29:19.341Z,64.40
2019-05-01T19:33:29.690Z,65.10
2019-05-01T19:37:40.009Z,65.70
2019-05-01T19:41:51.101Z,65.90
2019-05-01T19:46:02.479Z,66.10
2019-05-01T19:50:13.921Z,66.30
2019-05-01T19:54:27.906Z,67.00
2019-05-01T19:58:36.678Z,68.10
2019-05-01T20:02:46.968Z,68.90
2019-05-01T20:06:57.614Z,69.60
2019-05-01T20:11:09.655Z,69.90
2019-05-01T20:15:25.200Z,70.40
2019-05-01T20:19:33.793Z,70.60
2019-05-01T20:23:44.417Z,70.60
2019-05-01T20:27:57.362Z,71.00
2019-05-01T20:32:07.803Z,71.30
2019-05-01T20:36:18.072Z,71.50
2019-05-01T20:40:28.384Z,71.80
2019-05-01T20:44:39.489Z,72.80
2019-05-01T20:48:49.885Z,73.50
2019-05-01T20:53:00.204Z,74.10
2019-05-01T20:57:13.568Z,74.50
2019-05-01T21:01:28.141Z,74.60
2019-05-01T21:05:41.245Z,74.90
2019-05-01T21:09:57.831Z,75.40
2019-05-01T21:14:19.874Z,75.90
2019-05-01T21:18:20.993Z,76.10
2019-05-01T21:22:29.876Z,76.30
2019-05-01T21:26:40.173Z,76.60
2019-05-01T21:30:50.387Z,76.60
2019-05-01T21:35:01.478Z,77.20
2019-05-01T21:39:15.039Z,77.70
2019-05-01T21:43:27.842Z,78.10
2019-05-01T21:47:37.666Z,78.70
2019-05-01T21:51:48.085Z,79.30
2019-05-01T21:56:02.201Z,79.50
2019-05-01T22:00:11.066Z,79.50
2019-05-01T22:04:22.318Z,79.60
2019-05-01T22:08:34.517Z,79.70
2019-05-01T22:12:49.004Z,79.60
2019-05-01T22:16:58.407Z,79.70
2019-05-01T22:21:10.372Z,79.90
2019-05-01T22:25:25.122Z,79.90
2019-05-01T22:29:43.189Z,80.10
2019-05-01T22:33:55.244Z,80.30
2019-05-01T22:38:07.115Z,80.60
2019-05-01T22:42:17.706Z,80.70
2019-05-01T22:46:33.852Z,80.90
2019-05-01T22:50:41.626Z,81.20
2019-05-01T22:54:51.928Z,81.60
2019-05-01T22:59:03.120Z,82.20
2019-05-01T23:03:15.388Z,82.70
2019-05-01T23:07:26.224Z,82.70
2019-05-01T23:11:38.422Z,83.20
2019-05-01T23:15:51.493Z,83.30
2019-05-01T23:20:04.099Z,83.70
2019-05-01T23:24:13.534Z,84.10
2019-05-01T23:28:23.840Z,84.60
2019-05-01T23:32:34.140Z,85.00
2019-05-01T23:36:44.472Z,85.10
2019-05-01T23:40:54.909Z,85.60
2019-05-01T23:45:07.904Z,85.90
2019-05-01T23:49:18.408Z,86.00
2019-05-01T23:53:29.061Z,86.30
2019-05-01T23:57:39.476Z,86.50
